Time;durP1;ratioP1;P1;durP2;ratioP2;P2;SDS_P1;SDS_P2;PMS_P1;PMS_P2;Temp;Humidity;BMP_temperature;BMP_pressure;BME280_temperature;BME280_humidity;BME280_pressure;Samples;Min_cycle;Max_cycle;Signal;HPM_P1;HPM_P2
2020/12/24 00:00:53;;;;;;;14.13;2.57;;;10.00;99.90;;;;;;4953312;29;20415;-73
2020/12/24 00:03:21;;;;;;;8.60;1.90;;;9.90;99.90;;;;;;4953411;29;20411;-73
2020/12/24 00:05:48;;;;;;;7.17;1.80;;;9.90;99.90;;;;;;4937557;29;20443;-73
2020/12/24 00:08:14;;;;;;;6.60;2.23;;;9.80;99.90;;;;;;4953678;28;20796;-72
2020/12/24 00:10:40;;;;;;;5.97;2.73;;;9.80;99.90;;;;;;4953376;29;20419;-72
2020/12/24 00:13:09;;;;;;;5.27;1.90;;;9.80;99.90;;;;;;4936701;29;20408;-71
2020/12/24 00:15:37;;;;;;;5.20;1.80;;;9.80;99.90;;;;;;4953867;28;20497;-73
2020/12/24 00:18:06;;;;;;;2.87;1.57;;;9.70;99.90;;;;;;4939154;29;20408;-71
2020/12/24 00:20:39;;;;;;;6.70;2.70;;;9.70;99.90;;;;;;4957945;28;20422;-74
2020/12/24 00:23:07;;;;;;;6.67;1.83;;;9.70;99.90;;;;;;4956731;29;20459;-74
2020/12/24 00:29:16;;;;;;;8.27;2.97;;;9.60;99.90;;;;;;4956107;28;20471;-73
2020/12/24 00:31:47;;;;;;;7.13;2.53;;;9.60;99.90;;;;;;4956868;28;20921;-75
2020/12/24 00:34:17;;;;;;;3.37;1.73;;;9.50;99.90;;;;;;4972399;28;20408;-73
2020/12/24 00:36:46;;;;;;;11.53;2.07;;;9.40;99.90;;;;;;4970755;23;20502;-75
2020/12/24 00:39:18;;;;;;;9.13;1.53;;;9.40;99.90;;;;;;4940679;29;20408;-73
2020/12/24 00:41:44;;;;;;;7.00;1.97;;;9.40;99.90;;;;;;4940441;29;20411;-73
2020/12/24 00:44:15;;;;;;;5.53;1.93;;;9.40;99.90;;;;;;4940567;28;20979;-72
2020/12/24 00:46:41;;;;;;;5.17;1.80;;;9.40;99.90;;;;;;4956263;28;20514;-72
2020/12/24 00:49:09;;;;;;;6.47;2.27;;;9.40;99.90;;;;;;4940436;29;20478;-75
2020/12/24 00:51:35;;;;;;;4.37;2.07;;;9.30;99.90;;;;;;4924825;29;20524;-73
2020/12/24 00:54:06;;;;;;;5.97;2.07;;;9.30;99.90;;;;;;4940911;29;20439;-73
2020/12/24 00:56:34;;;;;;;7.60;2.40;;;9.30;99.90;;;;;;4956513;28;20790;-73
2020/12/24 00:59:08;;;;;;;4.57;1.73;;;9.30;99.90;;;;;;4941174;29;20446;-73
2020/12/24 01:01:38;;;;;;;6.97;2.10;;;9.30;99.90;;;;;;4955756;29;20432;-73
2020/12/24 01:04:05;;;;;;;4.97;1.93;;;9.40;99.90;;;;;;4956249;28;20423;-73
2020/12/24 01:06:33;;;;;;;8.50;2.20;;;9.40;99.90;;;;;;4956026;28;20439;-72
2020/12/24 01:08:59;;;;;;;4.20;1.60;;;9.40;99.90;;;;;;4924406;29;20511;-73
2020/12/24 01:11:27;;;;;;;10.13;2.97;;;9.40;99.90;;;;;;4956366;29;20779;-73
2020/12/24 01:13:54;;;;;;;5.77;1.80;;;9.30;99.90;;;;;;4957295;28;20436;-74
2020/12/24 01:16:22;;;;;;;5.50;2.00;;;9.30;99.90;;;;;;4955976;28;20523;-74
2020/12/24 01:18:49;;;;;;;8.03;2.00;;;9.30;99.90;;;;;;4940001;29;20404;-73
2020/12/24 01:21:15;;;;;;;5.23;2.00;;;9.20;99.90;;;;;;4940069;29;20949;-73
2020/12/24 01:23:41;;;;;;;8.70;1.93;;;9.10;99.90;;;;;;4954213;29;20416;-73
2020/12/24 01:26:08;;;;;;;5.73;2.33;;;9.20;99.90;;;;;;4939983;29;20451;-73
2020/12/24 01:28:37;;;;;;;6.67;1.83;;;9.10;99.90;;;;;;4954065;28;20443;-73
2020/12/24 01:31:04;;;;;;;5.90;2.27;;;9.10;99.90;;;;;;4953539;29;20468;-74
2020/12/24 01:33:30;;;;;;;6.33;2.27;;;9.10;99.90;;;;;;4939963;28;20420;-75
2020/12/24 01:36:02;;;;;;;8.27;2.80;;;9.10;99.90;;;;;;4971537;28;20490;-73
2020/12/24 01:38:30;;;;;;;21.73;2.60;;;9.10;99.90;;;;;;4954619;28;20407;-73
2020/12/24 01:41:01;;;;;;;7.63;2.10;;;9.10;99.90;;;;;;4955625;29;20482;-73
2020/12/24 01:43:29;;;;;;;6.77;1.87;;;9.00;99.90;;;;;;4956850;28;20419;-73
2020/12/24 01:45:57;;;;;;;8.07;2.00;;;9.10;99.90;;;;;;4956586;28;20544;-73
2020/12/24 01:48:26;;;;;;;8.43;1.83;;;9.10;99.90;;;;;;4956501;28;20479;-74
2020/12/24 01:50:53;;;;;;;5.37;1.93;;;9.00;99.90;;;;;;4939590;29;20451;-74
2020/12/24 01:53:23;;;;;;;10.50;1.77;;;9.00;99.90;;;;;;4956403;28;20435;-73
2020/12/24 01:55:55;;;;;;;8.63;2.00;;;9.00;99.90;;;;;;4924039;29;21032;-74
2020/12/24 01:58:29;;;;;;;6.60;2.03;;;8.90;99.90;;;;;;4953537;29;20411;-73
2020/12/24 02:00:59;;;;;;;7.93;2.53;;;8.90;99.90;;;;;;4956288;28;20471;-73
2020/12/24 02:03:30;;;;;;;7.20;2.40;;;9.00;99.90;;;;;;4939287;29;20816;-73
2020/12/24 02:05:58;;;;;;;6.83;2.30;;;9.10;99.90;;;;;;4939074;29;20517;-73
2020/12/24 02:08:28;;;;;;;13.30;2.50;;;9.10;99.90;;;;;;4954732;29;20455;-73
2020/12/24 02:10:56;;;;;;;12.67;3.00;;;9.10;99.90;;;;;;4955387;29;20408;-73
2020/12/24 02:13:22;;;;;;;8.67;2.67;;;9.10;99.90;;;;;;4956432;28;20939;-73
2020/12/24 02:15:48;;;;;;;10.73;2.43;;;9.30;99.90;;;;;;4954810;28;20453;-73
2020/12/24 02:18:14;;;;;;;8.30;2.90;;;9.30;99.90;;;;;;4955137;29;20486;-73
2020/12/24 02:20:44;;;;;;;7.40;2.67;;;9.30;99.90;;;;;;4954711;29;20482;-73
2020/12/24 02:23:15;;;;;;;6.03;2.40;;;9.30;99.90;;;;;;4939402;29;20419;-73
2020/12/24 02:25:41;;;;;;;9.37;3.30;;;9.30;99.90;;;;;;4954924;28;20435;-74
2020/12/24 02:28:09;;;;;;;9.17;2.23;;;9.40;99.90;;;;;;4954508;29;20415;-73
2020/12/24 02:30:36;;;;;;;6.03;2.17;;;9.30;99.90;;;;;;4938732;29;20420;-73
2020/12/24 02:33:12;;;;;;;12.67;2.53;;;9.30;99.90;;;;;;4954481;29;20419;-73
2020/12/24 02:35:41;;;;;;;7.17;2.40;;;9.40;99.90;;;;;;4954413;28;20459;-73
2020/12/24 02:38:09;;;;;;;7.83;2.30;;;9.40;99.90;;;;;;4954480;29;20459;-73
2020/12/24 02:40:37;;;;;;;5.17;2.20;;;9.30;99.90;;;;;;4938581;29;20522;-73
2020/12/24 02:43:04;;;;;;;15.00;4.53;;;9.30;99.90;;;;;;4938398;29;20430;-73
2020/12/24 02:45:32;;;;;;;7.70;2.05;;;9.20;99.90;;;;;;4955439;28;20422;-73
2020/12/24 02:47:58;;;;;;;10.83;4.40;;;9.20;99.90;;;;;;4954011;29;20599;-72
2020/12/24 02:50:24;;;;;;;7.43;2.30;;;9.30;99.90;;;;;;4936490;29;20451;-73
2020/12/24 02:52:53;;;;;;;8.27;3.00;;;9.20;99.90;;;;;;4954266;28;20431;-72
2020/12/24 02:55:22;;;;;;;6.07;2.40;;;9.40;99.90;;;;;;4953174;28;20458;-72
2020/12/24 02:57:48;;;;;;;12.55;2.70;;;9.40;99.90;;;;;;4953588;28;20423;-72
2020/12/24 03:00:16;;;;;;;7.28;2.05;;;9.30;99.90;;;;;;4953657;28;20830;-71
2020/12/24 03:02:45;;;;;;;4.90;2.13;;;9.30;99.90;;;;;;4953503;29;20188;-71
2020/12/24 03:05:11;;;;;;;4.70;1.73;;;9.20;99.90;;;;;;4954188;28;20826;-74
2020/12/24 03:07:48;;;;;;;6.30;2.10;;;9.10;99.90;;;;;;4938036;29;20940;-73
2020/12/24 03:10:17;;;;;;;8.27;2.70;;;9.20;99.90;;;;;;4954440;28;20453;-72
2020/12/24 03:12:46;;;;;;;8.57;2.10;;;9.20;99.90;;;;;;4953136;28;20938;-72
2020/12/24 03:15:17;;;;;;;9.07;2.20;;;9.20;99.90;;;;;;4953824;28;20419;-72
2020/12/24 03:17:43;;;;;;;9.80;2.20;;;9.20;99.90;;;;;;4941978;29;20942;-72
2020/12/24 03:20:09;;;;;;;10.93;2.70;;;9.30;99.90;;;;;;4970947;28;20816;-74
2020/12/24 03:22:40;;;;;;;14.40;2.30;;;9.30;99.90;;;;;;4942923;29;20444;-71
2020/12/24 03:25:08;;;;;;;7.13;2.20;;;9.30;99.90;;;;;;4934558;29;20438;-72
2020/12/24 03:27:34;;;;;;;10.90;2.30;;;9.30;99.90;;;;;;4933581;29;20451;-72
2020/12/24 03:30:07;;;;;;;4.27;1.80;;;9.30;99.90;;;;;;4933839;29;20474;-72
2020/12/24 03:32:34;;;;;;;4.03;1.60;;;9.30;99.90;;;;;;4942748;29;21021;-72
2020/12/24 03:35:02;;;;;;;5.07;1.88;;;9.20;99.90;;;;;;4949015;29;20434;-74
2020/12/24 03:37:28;;;;;;;7.03;1.97;;;9.20;99.90;;;;;;4952396;28;20282;-72
2020/12/24 03:39:57;;;;;;;6.60;2.53;;;9.20;99.90;;;;;;4952577;29;20427;-73
2020/12/24 03:42:23;;;;;;;5.17;2.03;;;9.30;99.90;;;;;;4936612;29;20442;-73
2020/12/24 03:44:52;;;;;;;3.97;1.77;;;9.30;99.90;;;;;;4952406;29;20434;-73
2020/12/24 03:47:20;;;;;;;8.67;2.30;;;9.30;99.90;;;;;;4953136;29;20847;-73
2020/12/24 03:49:49;;;;;;;7.20;2.30;;;9.30;99.90;;;;;;4936688;29;20594;-73
2020/12/24 03:52:15;;;;;;;4.23;1.80;;;9.30;99.90;;;;;;4952878;28;20942;-73
2020/12/24 03:54:43;;;;;;;5.33;2.93;;;9.20;99.90;;;;;;4958044;28;20435;-72
2020/12/24 03:57:09;;;;;;;7.10;2.20;;;9.20;99.90;;;;;;4953705;29;20810;-72
2020/12/24 03:59:35;;;;;;;6.73;1.80;;;9.20;99.90;;;;;;4949706;29;20525;-74
2020/12/24 04:02:01;;;;;;;10.00;2.83;;;9.20;99.90;;;;;;4952899;29;20836;-72
2020/12/24 04:04:28;;;;;;;8.97;1.93;;;9.20;99.90;;;;;;4948293;29;20451;-74
2020/12/24 04:06:56;;;;;;;5.57;1.53;;;9.20;99.90;;;;;;4956351;28;20517;-72
2020/12/24 04:09:22;;;;;;;4.83;2.10;;;9.20;99.90;;;;;;4956700;29;20463;-74
2020/12/24 04:11:54;;;;;;;4.77;2.43;;;9.10;99.90;;;;;;4957375;28;20419;-71
2020/12/24 04:14:22;;;;;;;9.70;2.77;;;9.10;99.90;;;;;;4947067;28;20440;-72
2020/12/24 04:16:48;;;;;;;5.50;2.00;;;9.10;99.90;;;;;;4941506;29;20451;-72
2020/12/24 04:19:14;;;;;;;5.60;1.80;;;9.10;99.90;;;;;;4940712;29;20937;-72
2020/12/24 04:21:40;;;;;;;4.20;2.20;;;9.00;99.90;;;;;;4954980;28;20468;-72
2020/12/24 04:24:06;;;;;;;5.77;2.07;;;9.10;99.90;;;;;;4956512;29;20787;-73
2020/12/24 04:26:32;;;;;;;5.00;1.67;;;9.10;99.90;;;;;;4957099;28;20542;-71
2020/12/24 04:29:01;;;;;;;6.00;2.20;;;9.10;99.90;;;;;;4940085;29;21514;-73
2020/12/24 04:31:27;;;;;;;4.57;1.77;;;9.10;99.90;;;;;;4939255;29;20439;-72
2020/12/24 04:33:55;;;;;;;7.00;2.13;;;9.10;99.90;;;;;;4940285;29;20853;-71
2020/12/24 04:36:24;;;;;;;3.63;2.40;;;9.10;99.90;;;;;;4947907;28;20315;-73
2020/12/24 04:38:53;;;;;;;6.27;2.10;;;9.10;99.90;;;;;;4938148;29;20425;-72
2020/12/24 04:41:23;;;;;;;6.50;2.40;;;9.10;99.90;;;;;;4952193;29;20573;-72
2020/12/24 04:43:52;;;;;;;6.40;2.40;;;9.00;99.90;;;;;;4956809;28;20426;-72
2020/12/24 04:46:22;;;;;;;5.70;1.90;;;9.00;99.90;;;;;;4941652;28;20543;-72
2020/12/24 04:48:53;;;;;;;9.13;2.27;;;9.00;99.90;;;;;;4946847;28;20470;-73
2020/12/24 04:51:22;;;;;;;7.73;1.73;;;9.00;99.90;;;;;;4956538;29;20450;-72
2020/12/24 04:53:48;;;;;;;6.75;2.28;;;9.00;99.90;;;;;;4955524;29;20446;-72
2020/12/24 04:56:14;;;;;;;5.83;1.73;;;9.00;99.90;;;;;;4954124;28;20684;-71
2020/12/24 04:58:43;;;;;;;5.67;1.90;;;9.00;99.90;;;;;;4936440;29;20479;-73
2020/12/24 05:01:16;;;;;;;5.33;2.07;;;9.00;99.90;;;;;;4934644;29;20427;-71
2020/12/24 05:03:47;;;;;;;7.90;2.13;;;9.00;99.90;;;;;;4935728;29;20547;-72
2020/12/24 05:06:17;;;;;;;11.43;2.20;;;9.10;99.90;;;;;;4947002;29;20823;-70
2020/12/24 05:08:54;;;;;;;17.23;3.27;;;9.10;99.90;;;;;;4954888;29;20985;-70
2020/12/24 05:11:28;;;;;;;4.50;1.73;;;9.00;99.90;;;;;;4954309;29;20551;-70
2020/12/24 05:14:14;;;;;;;6.87;1.70;;;9.00;99.90;;;;;;4954686;28;20579;-70
2020/12/24 05:16:55;;;;;;;13.60;2.40;;;8.90;99.90;;;;;;4952989;28;20586;-70
2020/12/24 05:19:26;;;;;;;7.70;1.80;;;8.80;99.90;;;;;;4954124;28;20447;-70
2020/12/24 05:21:53;;;;;;;5.33;2.20;;;8.80;99.90;;;;;;4937876;29;20462;-70
2020/12/24 05:24:33;;;;;;;6.67;1.73;;;8.80;99.90;;;;;;4954712;29;20427;-70
2020/12/24 05:27:15;;;;;;;8.00;2.60;;;8.80;99.90;;;;;;4954602;28;20459;-70
2020/12/24 05:29:45;;;;;;;5.53;1.97;;;8.80;99.90;;;;;;4955268;28;20984;-70
2020/12/24 05:32:29;;;;;;;5.37;1.50;;;8.70;99.90;;;;;;4949133;28;20527;-70
2020/12/24 05:35:03;;;;;;;11.07;2.50;;;8.60;99.90;;;;;;4948777;29;20427;-70
2020/12/24 05:37:30;;;;;;;7.27;2.37;;;8.60;99.90;;;;;;4954134;29;20240;-70
2020/12/24 05:39:56;;;;;;;8.23;2.00;;;8.70;99.90;;;;;;4951754;28;20443;-70
2020/12/24 05:42:24;;;;;;;7.77;2.00;;;8.60;99.90;;;;;;4927282;29;20467;-70
2020/12/24 05:44:51;;;;;;;5.07;1.40;;;8.70;99.90;;;;;;4942777;29;20800;-70
2020/12/24 05:47:27;;;;;;;10.83;2.37;;;8.70;99.90;;;;;;4944149;29;20455;-70
2020/12/24 05:49:53;;;;;;;9.00;1.90;;;8.80;99.90;;;;;;4947558;29;20984;-70
2020/12/24 05:52:19;;;;;;;6.00;2.10;;;8.70;99.90;;;;;;4955886;28;20961;-70
2020/12/24 05:54:47;;;;;;;4.77;1.50;;;8.70;99.90;;;;;;4946635;28;20981;-70
2020/12/24 05:57:20;;;;;;;6.40;2.10;;;8.60;99.90;;;;;;4935714;29;20476;-70
2020/12/24 05:59:48;;;;;;;11.10;2.45;;;8.60;99.90;;;;;;4941147;28;20432;-70
2020/12/24 06:02:14;;;;;;;8.00;2.00;;;8.60;99.90;;;;;;4936841;29;20193;-70
2020/12/24 06:04:48;;;;;;;7.60;2.30;;;8.60;99.90;;;;;;4947669;29;20439;-70
2020/12/24 06:07:30;;;;;;;6.70;2.03;;;8.50;99.90;;;;;;4934869;29;20519;-70
2020/12/24 06:10:07;;;;;;;6.77;2.20;;;8.60;99.90;;;;;;4915427;29;20529;-70
2020/12/24 06:12:50;;;;;;;4.73;1.93;;;8.70;99.90;;;;;;4955547;28;20436;-70
2020/12/24 06:15:17;;;;;;;6.33;2.17;;;8.70;99.90;;;;;;4937431;29;20416;-70
2020/12/24 06:17:45;;;;;;;8.60;2.07;;;8.60;99.90;;;;;;4953695;29;20427;-70
2020/12/24 06:20:19;;;;;;;6.03;1.67;;;8.70;99.90;;;;;;4942721;29;20914;-70
2020/12/24 06:22:45;;;;;;;4.97;1.90;;;8.70;99.90;;;;;;4953882;29;20875;-70
2020/12/24 06:25:14;;;;;;;5.50;2.13;;;8.70;99.90;;;;;;4969650;28;20437;-70
2020/12/24 06:27:50;;;;;;;7.33;2.17;;;8.70;99.90;;;;;;4936609;29;20439;-70
2020/12/24 06:30:28;;;;;;;5.03;1.93;;;8.70;99.90;;;;;;4919706;29;20471;-70
2020/12/24 06:32:54;;;;;;;4.90;1.60;;;8.70;99.90;;;;;;4953349;29;20427;-70
2020/12/24 06:35:39;;;;;;;6.90;1.90;;;8.70;99.90;;;;;;4954478;28;20416;-70
2020/12/24 06:38:11;;;;;;;9.17;2.87;;;8.70;99.90;;;;;;4954209;28;20439;-70
2020/12/24 06:40:41;;;;;;;6.63;1.70;;;8.70;99.90;;;;;;4954708;28;20965;-70
2020/12/24 06:43:10;;;;;;;5.00;2.00;;;8.70;99.90;;;;;;4950042;29;20463;-70
2020/12/24 06:45:43;;;;;;;4.17;1.67;;;8.70;99.90;;;;;;4936923;29;20535;-70
2020/12/24 06:48:15;;;;;;;8.63;2.20;;;8.80;99.90;;;;;;4937915;29;20942;-70
2020/12/24 06:50:45;;;;;;;10.63;2.30;;;8.80;99.90;;;;;;4953585;29;20411;-70
2020/12/24 06:53:34;;;;;;;13.90;1.77;;;8.70;99.90;;;;;;4944972;29;20960;-70
2020/12/24 06:56:16;;;;;;;4.95;1.90;;;8.80;99.90;;;;;;4937528;29;20454;-70
2020/12/24 06:58:59;;;;;;;4.97;2.10;;;8.70;99.90;;;;;;4952808;29;20183;-70
2020/12/24 07:01:30;;;;;;;3.63;1.60;;;8.70;99.90;;;;;;4953183;29;20403;-70
2020/12/24 07:04:04;;;;;;;5.27;2.10;;;8.60;99.90;;;;;;4953868;29;20807;-70
2020/12/24 07:06:49;;;;;;;4.13;1.40;;;8.60;99.90;;;;;;4953130;29;20443;-70
2020/12/24 07:09:21;;;;;;;4.60;1.70;;;8.60;99.90;;;;;;4952644;29;20678;-70
2020/12/24 07:11:54;;;;;;;3.80;2.23;;;8.60;99.90;;;;;;4954296;28;20408;-70
2020/12/24 07:14:30;;;;;;;5.20;2.05;;;8.60;99.90;;;;;;4937229;29;20949;-70
2020/12/24 07:17:20;;;;;;;9.57;1.90;;;8.60;99.90;;;;;;4938599;28;20717;-70
2020/12/24 07:19:49;;;;;;;5.60;1.80;;;8.70;99.90;;;;;;4954393;28;20439;-70
2020/12/24 07:22:22;;;;;;;7.63;3.17;;;8.70;99.90;;;;;;4952732;29;20411;-71
2020/12/24 07:25:01;;;;;;;4.60;1.50;;;8.70;99.90;;;;;;4952525;29;20427;-70
2020/12/24 07:27:29;;;;;;;6.00;1.90;;;8.70;99.90;;;;;;4935925;29;20451;-70
2020/12/24 07:29:58;;;;;;;4.70;1.60;;;8.70;99.90;;;;;;4953859;28;20878;-70
2020/12/24 07:32:28;;;;;;;5.27;1.40;;;8.70;99.90;;;;;;4936072;29;21317;-70
2020/12/24 07:34:59;;;;;;;7.63;2.57;;;8.80;99.90;;;;;;4953904;28;20474;-70
2020/12/24 07:37:26;;;;;;;4.00;1.80;;;8.80;99.90;;;;;;4939955;29;20495;-70
2020/12/24 07:39:55;;;;;;;7.67;2.30;;;8.80;99.90;;;;;;4954217;28;20626;-70
2020/12/24 07:42:23;;;;;;;12.73;2.60;;;8.80;99.90;;;;;;4952305;29;20440;-70
2020/12/24 07:44:51;;;;;;;6.07;2.03;;;8.70;99.90;;;;;;4953643;28;20430;-70
2020/12/24 07:47:20;;;;;;;6.97;1.73;;;8.70;99.90;;;;;;4936457;29;20490;-70
2020/12/24 07:49:50;;;;;;;8.10;2.17;;;8.70;99.90;;;;;;4953587;28;20495;-70
2020/12/24 07:52:19;;;;;;;6.50;1.93;;;8.70;99.90;;;;;;4921113;29;20443;-70
2020/12/24 07:54:45;;;;;;;7.07;2.13;;;8.80;99.90;;;;;;4934983;29;20432;-70
2020/12/24 07:57:22;;;;;;;6.37;1.83;;;8.70;99.90;;;;;;4928787;29;20476;-70
2020/12/24 08:00:04;;;;;;;10.07;2.70;;;8.70;99.90;;;;;;4934548;29;20440;-70
2020/12/24 08:02:30;;;;;;;6.03;2.50;;;8.70;99.90;;;;;;4951954;29;20427;-70
2020/12/24 08:05:01;;;;;;;2.67;2.20;;;8.10;99.90;;;;;;4952733;29;20496;-70
2020/12/24 08:07:27;;;;;;;6.97;4.72;;;8.00;99.90;;;;;;4940513;28;20294;-70
2020/12/24 08:10:14;;;;;;;2.90;2.70;;;7.80;99.90;;;;;;4933944;29;20199;-71
2020/12/24 08:12:40;;;;;;;1.80;1.70;;;7.60;99.90;;;;;;4933743;29;20175;-71
2020/12/24 08:15:17;;;;;;;1.67;1.58;;;7.20;99.90;;;;;;4941420;29;20678;-72
2020/12/24 08:18:04;;;;;;;1.70;1.60;;;7.00;99.90;;;;;;4936941;29;20184;-71
2020/12/24 08:20:46;;;;;;;1.70;1.60;;;6.80;99.90;;;;;;4943749;29;20245;-70
2020/12/24 08:23:17;;;;;;;1.70;1.60;;;6.50;99.90;;;;;;4952194;29;20259;-71
2020/12/24 08:25:52;;;;;;;1.60;1.45;;;6.50;99.90;;;;;;4950429;28;20216;-71
2020/12/24 08:28:19;;;;;;;2.30;2.10;;;6.40;99.90;;;;;;4951832;28;20195;-71
2020/12/24 08:30:48;;;;;;;3.03;2.28;;;6.30;99.90;;;;;;4952194;29;20211;-71
2020/12/24 08:33:19;;;;;;;2.40;2.20;;;6.10;99.90;;;;;;4953252;28;20682;-71
2020/12/24 08:35:47;;;;;;;3.35;2.78;;;6.00;99.90;;;;;;4946251;28;20245;-71
2020/12/24 08:38:16;;;;;;;3.60;3.30;;;6.00;99.90;;;;;;4952184;28;20530;-71
2020/12/24 08:40:44;;;;;;;3.05;2.80;;;6.00;99.90;;;;;;4955656;29;20180;-71
2020/12/24 08:43:31;;;;;;;3.67;3.30;;;6.00;99.90;;;;;;4956473;28;20192;-71
2020/12/24 08:46:02;;;;;;;3.85;3.55;;;5.90;99.90;;;;;;4936625;29;20208;-70
2020/12/24 08:48:34;;;;;;;3.67;3.38;;;5.90;99.90;;;;;;4944366;29;20188;-71
2020/12/24 08:51:17;;;;;;;3.88;3.50;;;5.90;99.90;;;;;;4958996;28;20194;-71
2020/12/24 08:53:43;;;;;;;4.13;3.72;;;5.90;99.90;;;;;;4955235;29;20224;-71
2020/12/24 08:56:18;;;;;;;4.00;3.10;;;5.80;99.90;;;;;;4955373;28;20214;-72
2020/12/24 08:58:50;;;;;;;3.80;3.40;;;5.90;99.90;;;;;;4955359;29;20191;-71
2020/12/24 09:01:17;;;;;;;2.65;2.45;;;5.90;99.90;;;;;;4956743;28;20266;-71
2020/12/24 09:03:44;;;;;;;2.30;2.10;;;5.90;99.90;;;;;;4954966;29;20267;-71
2020/12/24 09:06:14;;;;;;;3.13;2.33;;;5.90;99.90;;;;;;4956272;28;20207;-71
2020/12/24 09:08:44;;;;;;;2.88;1.48;;;5.90;99.90;;;;;;4954834;29;20247;-71
2020/12/24 09:11:29;;;;;;;2.25;1.50;;;5.90;99.90;;;;;;4955789;29;20183;-71
2020/12/24 09:14:05;;;;;;;2.00;1.90;;;5.90;99.90;;;;;;4954964;29;20184;-72
2020/12/24 09:16:34;;;;;;;2.13;1.65;;;6.00;99.90;;;;;;4955076;28;20708;-72
2020/12/24 09:19:05;;;;;;;1.70;1.60;;;6.00;99.90;;;;;;4954205;28;20536;-72
2020/12/24 09:21:33;;;;;;;1.50;1.40;;;5.90;99.90;;;;;;4972650;28;20187;-72
2020/12/24 09:24:09;;;;;;;1.70;1.35;;;6.00;99.90;;;;;;4954634;29;20189;-72
2020/12/24 09:26:50;;;;;;;1.60;1.40;;;6.00;99.90;;;;;;4935488;28;20665;-71
2020/12/24 09:29:17;;;;;;;1.35;0.90;;;6.00;99.90;;;;;;4954642;29;20331;-72
2020/12/24 09:31:54;;;;;;;1.60;1.20;;;6.00;99.90;;;;;;4939926;28;20181;-72
2020/12/24 09:34:24;;;;;;;1.23;1.13;;;6.10;99.90;;;;;;4935853;29;20180;-72
2020/12/24 09:36:51;;;;;;;1.92;1.38;;;6.20;99.90;;;;;;4936319;29;20713;-72
2020/12/24 09:39:18;;;;;;;1.42;1.33;;;6.20;99.90;;;;;;4935760;29;20184;-72
2020/12/24 09:41:49;;;;;;;1.55;1.00;;;6.20;99.90;;;;;;4935111;29;20673;-72
2020/12/24 09:44:17;;;;;;;1.50;1.20;;;6.20;99.90;;;;;;4947591;28;20176;-73
2020/12/24 09:46:49;;;;;;;1.40;1.20;;;6.20;99.90;;;;;;4938979;29;20711;-72
2020/12/24 09:49:17;;;;;;;1.83;1.25;;;6.20;99.90;;;;;;4954794;28;20227;-71
2020/12/24 09:51:43;;;;;;;3.63;1.10;;;6.10;99.90;;;;;;4938076;29;20195;-71
2020/12/24 09:54:12;;;;;;;1.30;1.13;;;6.00;99.90;;;;;;4953880;29;20172;-71
2020/12/24 09:56:41;;;;;;;1.15;1.00;;;6.20;99.90;;;;;;4954062;28;20192;-71
2020/12/24 09:59:09;;;;;;;1.50;1.25;;;6.30;99.90;;;;;;4938125;29;20180;-71
2020/12/24 10:01:54;;;;;;;1.38;1.25;;;6.30;99.90;;;;;;4954024;29;20184;-72
2020/12/24 10:04:20;;;;;;;2.50;1.35;;;6.20;99.90;;;;;;4955305;28;20180;-72
2020/12/24 10:07:05;;;;;;;2.40;1.77;;;6.20;99.90;;;;;;4931701;28;20208;-71
2020/12/24 10:09:37;;;;;;;2.97;1.85;;;6.20;99.90;;;;;;4949589;29;20208;-73
2020/12/24 10:12:22;;;;;;;4.05;2.22;;;6.20;99.90;;;;;;4953939;28;20283;-73
2020/12/24 10:14:49;;;;;;;2.55;2.35;;;6.20;99.90;;;;;;4955339;28;20556;-73
2020/12/24 10:17:17;;;;;;;3.80;2.10;;;6.20;99.90;;;;;;4954708;28;20215;-72
2020/12/24 10:19:44;;;;;;;3.42;3.13;;;6.20;99.90;;;;;;4954356;28;20207;-73
2020/12/24 10:22:14;;;;;;;3.72;3.33;;;6.20;99.90;;;;;;4952919;28;20196;-72
2020/12/24 10:24:43;;;;;;;3.50;2.92;;;6.20;99.90;;;;;;4955181;28;20187;-71
2020/12/24 10:27:10;;;;;;;4.32;3.92;;;6.10;99.90;;;;;;4953166;29;20200;-72
2020/12/24 10:29:37;;;;;;;5.13;4.07;;;6.00;99.90;;;;;;4953765;29;20689;-72
2020/12/24 10:32:06;;;;;;;4.78;4.20;;;6.00;99.90;;;;;;4929567;29;20191;-72
2020/12/24 10:34:34;;;;;;;9.93;7.05;;;6.00;99.90;;;;;;4952537;29;20188;-72
2020/12/24 10:37:01;;;;;;;4.40;3.83;;;6.10;99.90;;;;;;4951774;28;20739;-73
2020/12/24 10:39:28;;;;;;;6.47;4.70;;;6.10;99.90;;;;;;4954209;28;20182;-73
2020/12/24 10:41:57;;;;;;;4.88;4.32;;;6.10;99.90;;;;;;4953909;29;20777;-72
2020/12/24 10:44:26;;;;;;;4.70;4.30;;;6.10;99.90;;;;;;4954337;28;20176;-71
2020/12/24 10:47:01;;;;;;;3.60;3.30;;;6.20;99.90;;;;;;4954348;28;20204;-72
2020/12/24 10:49:32;;;;;;;3.08;2.72;;;6.10;99.90;;;;;;4952178;28;20204;-70
2020/12/24 10:51:58;;;;;;;2.70;2.45;;;6.10;99.90;;;;;;4952663;29;20184;-72
2020/12/24 10:54:30;;;;;;;3.75;2.72;;;6.00;99.90;;;;;;4918952;29;20266;-72
2020/12/24 10:56:56;;;;;;;2.20;2.00;;;6.10;99.90;;;;;;4946135;29;20681;-72
2020/12/24 10:59:22;;;;;;;2.38;2.17;;;6.00;99.90;;;;;;4952981;29;20176;-72
2020/12/24 11:01:50;;;;;;;3.50;3.20;;;6.00;99.90;;;;;;4953495;28;20233;-71
2020/12/24 11:04:24;;;;;;;3.85;3.55;;;6.10;99.90;;;;;;4937627;29;20207;-75
2020/12/24 11:06:52;;;;;;;5.15;3.53;;;6.10;99.90;;;;;;4919261;29;20302;-75
2020/12/24 11:09:21;;;;;;;7.07;4.70;;;6.10;99.90;;;;;;4954292;29;20203;-74
2020/12/24 11:11:47;;;;;;;4.93;3.92;;;6.00;99.90;;;;;;4953241;29;20195;-76
2020/12/24 11:14:13;;;;;;;6.20;4.60;;;6.00;99.90;;;;;;4937928;29;20164;-73
2020/12/24 11:16:44;;;;;;;9.80;5.85;;;6.10;99.90;;;;;;4953868;28;20527;-77
2020/12/24 11:19:12;;;;;;;8.05;6.22;;;6.20;99.90;;;;;;4954265;28;20573;-76
2020/12/24 11:21:57;;;;;;;7.68;6.30;;;6.20;99.90;;;;;;4955036;28;20180;-76
2020/12/24 11:24:23;;;;;;;8.10;5.93;;;6.30;99.90;;;;;;4955103;28;20255;-76
2020/12/24 11:26:52;;;;;;;7.22;5.25;;;6.30;99.90;;;;;;4955007;28;20290;-75
2020/12/24 11:29:20;;;;;;;7.53;6.25;;;6.30;99.90;;;;;;4954864;28;20250;-76
2020/12/24 11:31:46;;;;;;;7.75;6.35;;;6.30;99.90;;;;;;4953939;28;20184;-75
2020/12/24 11:34:17;;;;;;;8.77;6.60;;;6.40;99.90;;;;;;4954026;29;20649;-75
2020/12/24 11:36:44;;;;;;;9.20;7.35;;;6.30;99.90;;;;;;4954573;28;20235;-75
2020/12/24 11:39:14;;;;;;;9.88;7.30;;;6.30;99.90;;;;;;4922110;29;20187;-75
2020/12/24 11:41:42;;;;;;;9.30;7.32;;;6.40;99.90;;;;;;4953641;29;20174;-76
2020/12/24 11:44:12;;;;;;;6.95;5.38;;;6.40;99.90;;;;;;4953711;29;20172;-76
2020/12/24 11:46:40;;;;;;;11.48;6.18;;;6.30;99.90;;;;;;4922485;29;20323;-76
2020/12/24 11:49:09;;;;;;;7.85;5.70;;;6.30;99.90;;;;;;4937760;29;20207;-75
2020/12/24 11:51:35;;;;;;;8.43;5.30;;;6.20;99.90;;;;;;4937008;29;20664;-76
2020/12/24 11:54:01;;;;;;;6.27;4.87;;;6.20;99.90;;;;;;4954773;28;20251;-75
2020/12/24 11:56:27;;;;;;;5.68;4.40;;;6.20;99.90;;;;;;4953703;28;20490;-76
2020/12/24 11:58:54;;;;;;;6.22;4.55;;;6.10;99.90;;;;;;4953205;28;20184;-73
2020/12/24 12:01:20;;;;;;;4.85;4.25;;;6.10;99.90;;;;;;4953926;28;20188;-72
2020/12/24 12:03:51;;;;;;;8.88;4.70;;;6.20;99.90;;;;;;4953131;28;20694;-73
2020/12/24 12:06:25;;;;;;;4.78;3.85;;;6.20;99.90;;;;;;4952442;29;20196;-73
2020/12/24 12:08:53;;;;;;;4.55;3.90;;;6.30;99.90;;;;;;4971664;28;20303;-74
2020/12/24 12:11:20;;;;;;;4.30;3.90;;;6.30;99.90;;;;;;4952846;29;20592;-74
2020/12/24 12:13:50;;;;;;;5.53;3.78;;;6.30;99.90;;;;;;4953952;28;20188;-74
2020/12/24 12:16:28;;;;;;;6.47;3.80;;;6.40;99.90;;;;;;4955918;29;20204;-76
2020/12/24 12:18:56;;;;;;;4.38;3.92;;;6.40;99.90;;;;;;4956493;29;20234;-77
2020/12/24 12:21:25;;;;;;;4.25;3.50;;;6.50;99.90;;;;;;4956909;28;20211;-76
2020/12/24 12:23:53;;;;;;;7.35;3.70;;;6.50;99.90;;;;;;4958811;28;20192;-78
2020/12/24 12:26:21;;;;;;;5.00;3.97;;;6.50;99.90;;;;;;4957781;28;20212;-75
2020/12/24 12:28:48;;;;;;;4.03;3.45;;;6.50;99.90;;;;;;4940708;29;20255;-76
2020/12/24 12:31:21;;;;;;;4.72;3.80;;;6.60;99.90;;;;;;4955820;29;20223;-74
2020/12/24 12:33:48;;;;;;;6.90;4.57;;;6.60;99.90;;;;;;4955932;28;20207;-77
2020/12/24 12:36:18;;;;;;;6.82;4.10;;;6.60;99.90;;;;;;4955829;28;20309;-74
2020/12/24 12:38:50;;;;;;;5.70;4.63;;;6.70;99.90;;;;;;4956434;29;20184;-73
2020/12/24 12:41:18;;;;;;;7.15;5.45;;;6.60;99.90;;;;;;4956477;29;20242;-73
2020/12/24 12:43:48;;;;;;;5.88;5.03;;;6.60;99.90;;;;;;4939845;29;20180;-74
2020/12/24 12:46:21;;;;;;;6.10;5.03;;;6.50;99.90;;;;;;4956508;28;20713;-73
2020/12/24 12:48:50;;;;;;;7.40;5.10;;;6.50;99.90;;;;;;4940402;29;20208;-74
2020/12/24 12:51:21;;;;;;;5.50;4.50;;;6.60;99.90;;;;;;4956130;28;20713;-73
2020/12/24 12:54:06;;;;;;;9.00;5.35;;;6.60;99.90;;;;;;4956438;29;20736;-73
2020/12/24 12:56:36;;;;;;;6.68;4.95;;;6.60;99.90;;;;;;4956073;28;20744;-71
2020/12/24 12:59:05;;;;;;;6.25;4.60;;;6.70;99.90;;;;;;4956232;28;20712;-72
2020/12/24 13:01:34;;;;;;;11.95;7.55;;;6.60;99.90;;;;;;4935946;29;20216;-72
2020/12/24 13:04:00;;;;;;;43.55;14.82;;;6.60;99.90;;;;;;4933344;29;20266;-72
2020/12/24 13:06:26;;;;;;;15.80;9.07;;;6.60;99.90;;;;;;4954185;28;20212;-72
2020/12/24 13:08:54;;;;;;;38.88;15.27;;;6.70;99.90;;;;;;4922869;29;20219;-72
2020/12/24 13:11:20;;;;;;;15.45;8.32;;;6.70;99.90;;;;;;4955213;28;20179;-72
2020/12/24 13:14:05;;;;;;;66.90;20.85;;;6.70;99.90;;;;;;4954958;28;20232;-72